Time;durP1;ratioP1;P1;durP2;ratioP2;P2;SDS_P1;SDS_P2;PMS_P1;PMS_P2;Temp;Humidity;BMP_temperature;BMP_pressure;BME280_temperature;BME280_humidity;BME280_pressure;Samples;Min_cycle;Max_cycle;Signal;HPM_P1;HPM_P2
2021/08/05 00:01:52;;;;;;;6.03;3.60;;;17.60;82.80;;;;;;5061078;28;20522;-86
2021/08/05 00:04:19;;;;;;;4.40;3.23;;;17.50;83.20;;;;;;5060834;28;20445;-84
2021/08/05 00:06:46;;;;;;;5.63;3.33;;;17.40;83.00;;;;;;5059805;28;21075;-85
2021/08/05 00:09:13;;;;;;;3.43;3.10;;;17.50;83.10;;;;;;5065746;28;20456;-82
2021/08/05 00:11:40;;;;;;;5.10;3.37;;;17.50;83.50;;;;;;5062580;28;20487;-83
2021/08/05 00:14:08;;;;;;;4.73;4.10;;;17.40;84.40;;;;;;5064368;28;20456;-82
2021/08/05 00:16:35;;;;;;;3.57;3.27;;;17.40;85.40;;;;;;5064401;28;21015;-82
2021/08/05 00:19:03;;;;;;;4.87;3.70;;;17.40;85.60;;;;;;5072723;28;20511;-80
2021/08/05 00:21:30;;;;;;;6.00;3.30;;;17.40;85.30;;;;;;5073758;28;20456;-82
2021/08/05 00:23:57;;;;;;;3.73;2.63;;;17.40;84.60;;;;;;5071383;28;20442;-82
2021/08/05 00:26:24;;;;;;;3.20;2.90;;;17.50;83.90;;;;;;5068990;28;20524;-82
2021/08/05 00:28:51;;;;;;;3.40;3.07;;;17.40;83.70;;;;;;5063910;28;20547;-81
2021/08/05 00:31:20;;;;;;;3.90;3.23;;;17.40;83.00;;;;;;5062544;28;20460;-81
2021/08/05 00:33:47;;;;;;;3.63;3.30;;;17.40;83.60;;;;;;5062785;28;20879;-83
2021/08/05 00:36:14;;;;;;;3.90;3.20;;;17.40;83.00;;;;;;5073453;28;20445;-83
2021/08/05 00:38:41;;;;;;;5.57;3.10;;;17.40;83.30;;;;;;5076543;28;20484;-83
2021/08/05 00:41:08;;;;;;;4.20;2.80;;;17.40;83.60;;;;;;5076660;28;20448;-83
2021/08/05 00:43:35;;;;;;;4.10;3.03;;;17.40;83.90;;;;;;5076716;28;20498;-83
2021/08/05 00:46:02;;;;;;;4.20;3.10;;;17.40;83.70;;;;;;5068204;28;20437;-83
2021/08/05 00:48:30;;;;;;;3.60;2.90;;;17.30;84.20;;;;;;5058674;28;20468;-83
2021/08/05 00:50:58;;;;;;;4.30;3.43;;;17.30;84.50;;;;;;5059774;28;20495;-84
2021/08/05 00:53:27;;;;;;;3.33;2.97;;;17.30;84.50;;;;;;5062862;28;20459;-83
2021/08/05 00:55:53;;;;;;;3.40;2.93;;;17.30;84.70;;;;;;5067446;28;20992;-82
2021/08/05 00:58:20;;;;;;;5.00;3.53;;;17.30;84.80;;;;;;5058149;28;20455;-84
2021/08/05 01:00:50;;;;;;;3.20;2.90;;;17.40;84.80;;;;;;5068443;28;20463;-80
2021/08/05 01:03:23;;;;;;;4.77;3.73;;;17.30;84.80;;;;;;5065157;28;20449;-79
2021/08/05 01:05:58;;;;;;;5.83;3.47;;;17.30;84.70;;;;;;5068269;28;20463;-79
2021/08/05 01:08:27;;;;;;;3.40;3.10;;;17.30;85.80;;;;;;5066037;28;20483;-85
2021/08/05 01:11:06;;;;;;;5.37;3.50;;;17.20;85.60;;;;;;5057531;28;20866;-80
2021/08/05 01:13:39;;;;;;;3.37;3.00;;;17.30;85.50;;;;;;5057882;28;20494;-79
2021/08/05 01:16:11;;;;;;;3.67;3.13;;;17.20;86.10;;;;;;5056205;28;20457;-80
2021/08/05 01:18:38;;;;;;;4.27;3.73;;;17.20;85.70;;;;;;5061797;28;20441;-82
2021/08/05 01:21:14;;;;;;;6.30;3.23;;;17.20;86.30;;;;;;5060449;28;20492;-84
2021/08/05 01:23:44;;;;;;;4.97;3.57;;;17.20;86.60;;;;;;5059230;28;20952;-83
2021/08/05 01:26:16;;;;;;;7.60;3.10;;;17.20;86.80;;;;;;5060308;28;20483;-84
2021/08/05 01:28:46;;;;;;;3.60;3.30;;;17.20;87.00;;;;;;5060860;28;20499;-85
2021/08/05 01:31:14;;;;;;;4.63;3.60;;;17.20;87.00;;;;;;5059986;28;20955;-84
2021/08/05 01:33:41;;;;;;;5.30;3.57;;;17.20;86.90;;;;;;5061677;28;20999;-85
2021/08/05 01:36:08;;;;;;;8.60;3.40;;;17.20;87.50;;;;;;5061399;28;20539;-83
2021/08/05 01:38:38;;;;;;;6.83;4.00;;;17.20;87.90;;;;;;5061448;28;20542;-82
2021/08/05 01:41:06;;;;;;;6.23;3.40;;;17.20;88.50;;;;;;5065719;28;20434;-80
2021/08/05 01:43:34;;;;;;;5.07;3.10;;;17.20;89.10;;;;;;5077049;28;20448;-81
2021/08/05 01:46:04;;;;;;;6.50;3.10;;;17.20;89.40;;;;;;5077123;28;20447;-81
2021/08/05 01:48:33;;;;;;;4.57;3.50;;;17.10;90.00;;;;;;5073344;28;20510;-79
2021/08/05 01:51:01;;;;;;;5.83;3.23;;;17.10;90.30;;;;;;5066928;28;20449;-80
2021/08/05 01:53:28;;;;;;;4.10;3.70;;;17.10;90.50;;;;;;5059061;28;20494;-81
2021/08/05 01:55:55;;;;;;;6.30;4.03;;;17.10;90.50;;;;;;5065856;28;20444;-80
2021/08/05 01:58:22;;;;;;;8.17;4.00;;;17.10;90.50;;;;;;5068161;28;20448;-81
2021/08/05 02:00:52;;;;;;;7.30;3.70;;;17.10;90.50;;;;;;5070423;28;20443;-83
2021/08/05 02:03:20;;;;;;;6.97;3.80;;;17.00;91.00;;;;;;5061091;28;20817;-83
2021/08/05 02:06:03;;;;;;;7.03;3.77;;;17.00;91.30;;;;;;5060057;28;20466;-84
2021/08/05 02:08:39;;;;;;;3.63;3.33;;;17.00;91.50;;;;;;5059673;28;20532;-84
2021/08/05 02:11:08;;;;;;;5.03;4.30;;;17.00;91.70;;;;;;5062519;28;20455;-84
2021/08/05 02:13:40;;;;;;;8.20;3.80;;;17.00;91.50;;;;;;5060958;28;20956;-83
2021/08/05 02:16:12;;;;;;;4.50;4.10;;;16.90;91.50;;;;;;5067474;28;21040;-81
2021/08/05 02:18:45;;;;;;;3.97;3.63;;;16.90;91.90;;;;;;5076152;28;20418;-81
2021/08/05 02:21:15;;;;;;;5.43;4.83;;;16.80;92.20;;;;;;5056929;28;20471;-79
2021/08/05 02:23:43;;;;;;;4.80;4.37;;;16.80;92.40;;;;;;5058450;28;20490;-80
2021/08/05 02:26:10;;;;;;;7.77;4.23;;;16.70;92.70;;;;;;5072252;28;20471;-80
2021/08/05 02:28:37;;;;;;;5.80;3.57;;;16.70;93.00;;;;;;5055549;28;20545;-79
2021/08/05 02:31:07;;;;;;;4.83;3.60;;;16.60;93.30;;;;;;5064355;28;20461;-82
2021/08/05 02:33:34;;;;;;;6.30;4.37;;;16.60;93.50;;;;;;5060892;28;20454;-78
2021/08/05 02:36:03;;;;;;;5.00;4.40;;;16.50;94.00;;;;;;5069109;28;20473;-86
2021/08/05 02:38:30;;;;;;;4.90;3.60;;;16.50;93.90;;;;;;5081293;28;20446;-84
2021/08/05 02:40:58;;;;;;;4.90;4.40;;;16.50;93.90;;;;;;5068999;28;20458;-81
2021/08/05 02:43:28;;;;;;;3.87;3.57;;;16.40;93.90;;;;;;5064845;28;20469;-79
2021/08/05 02:45:56;;;;;;;4.87;4.20;;;16.40;93.90;;;;;;5067921;28;20469;-82
2021/08/05 02:48:25;;;;;;;4.10;3.70;;;16.40;93.90;;;;;;5071459;28;20489;-83
2021/08/05 02:50:54;;;;;;;3.60;3.10;;;16.30;93.90;;;;;;5063854;28;20465;-80
2021/08/05 02:53:23;;;;;;;5.53;3.87;;;16.30;94.00;;;;;;5063925;28;20449;-81
2021/08/05 02:55:51;;;;;;;7.37;3.70;;;16.30;94.10;;;;;;5059008;28;20491;-80
2021/08/05 02:58:18;;;;;;;3.97;3.60;;;16.30;94.30;;;;;;5058006;28;20562;-79
2021/08/05 03:00:45;;;;;;;4.93;4.43;;;16.30;94.80;;;;;;5057949;28;20494;-80
2021/08/05 03:03:13;;;;;;;4.10;3.70;;;16.30;94.60;;;;;;5058321;28;20522;-79
2021/08/05 03:05:41;;;;;;;4.57;4.07;;;16.20;94.50;;;;;;5059052;28;20481;-79
2021/08/05 03:08:08;;;;;;;4.73;3.90;;;16.20;94.80;;;;;;5058819;28;20511;-80
2021/08/05 03:10:36;;;;;;;4.93;4.40;;;16.20;95.10;;;;;;5062667;28;20488;-83
2021/08/05 03:13:03;;;;;;;4.90;4.23;;;16.20;95.60;;;;;;5065862;28;20842;-82
2021/08/05 03:15:31;;;;;;;4.27;3.70;;;16.10;95.70;;;;;;5062796;28;20456;-83
2021/08/05 03:17:58;;;;;;;6.57;4.50;;;16.20;96.00;;;;;;5062652;28;20458;-83
2021/08/05 03:20:25;;;;;;;6.87;3.80;;;16.10;96.20;;;;;;5062218;28;20501;-83
2021/08/05 03:22:52;;;;;;;4.97;4.57;;;16.10;96.30;;;;;;5062125;28;20464;-82
2021/08/05 03:25:19;;;;;;;4.30;3.93;;;16.10;96.40;;;;;;5060626;28;20442;-82
2021/08/05 03:27:47;;;;;;;5.47;4.57;;;16.10;96.80;;;;;;5062340;28;20485;-80
2021/08/05 03:30:14;;;;;;;7.03;3.90;;;16.10;97.00;;;;;;5066293;28;20252;-84
2021/08/05 03:32:41;;;;;;;4.40;4.00;;;16.10;96.90;;;;;;5066847;28;20559;-83
2021/08/05 03:35:08;;;;;;;4.93;4.23;;;16.20;96.80;;;;;;5062169;28;20476;-83
2021/08/05 03:37:35;;;;;;;4.93;4.43;;;16.10;96.90;;;;;;5061798;28;20876;-84
2021/08/05 03:40:03;;;;;;;4.47;4.07;;;16.10;96.90;;;;;;5061771;28;20447;-84
2021/08/05 03:42:30;;;;;;;4.05;3.70;;;16.00;97.40;;;;;;5061248;28;20478;-83
2021/08/05 03:44:58;;;;;;;4.67;4.27;;;16.00;97.80;;;;;;5061148;28;20213;-84
2021/08/05 03:47:25;;;;;;;5.60;4.40;;;16.00;98.20;;;;;;5060717;28;20455;-83
2021/08/05 03:49:52;;;;;;;4.40;4.00;;;15.90;98.50;;;;;;5061612;28;20482;-84
2021/08/05 03:52:19;;;;;;;4.90;4.40;;;15.90;98.80;;;;;;5062587;28;20856;-83
2021/08/05 03:54:45;;;;;;;4.70;3.93;;;15.90;99.00;;;;;;5067068;28;20453;-82
2021/08/05 03:57:12;;;;;;;5.23;4.23;;;15.90;99.10;;;;;;5063083;28;20433;-83
2021/08/05 03:59:39;;;;;;;5.93;4.90;;;15.90;99.70;;;;;;5067454;28;20470;-84
2021/08/05 04:02:07;;;;;;;7.10;4.50;;;16.00;99.60;;;;;;5065116;28;20457;-82
2021/08/05 04:04:34;;;;;;;5.77;4.50;;;15.90;99.20;;;;;;5064307;28;20429;-85
2021/08/05 04:07:01;;;;;;;7.30;4.80;;;15.90;99.50;;;;;;5068524;28;20486;-82
2021/08/05 04:09:28;;;;;;;6.57;5.38;;;15.90;99.50;;;;;;5077147;28;20473;-82
2021/08/05 04:11:55;;;;;;;5.40;4.80;;;15.90;99.90;;;;;;5079351;28;20230;-80
2021/08/05 04:14:22;;;;;;;5.67;4.93;;;15.90;99.90;;;;;;5079481;28;20428;-83
2021/08/05 04:16:49;;;;;;;5.97;4.33;;;15.90;99.90;;;;;;5074215;28;20473;-84
2021/08/05 04:19:17;;;;;;;5.93;4.70;;;15.90;99.90;;;;;;5070139;28;20707;-84
2021/08/05 04:21:44;;;;;;;5.45;4.95;;;15.90;99.90;;;;;;5071280;28;20450;-80
2021/08/05 04:24:11;;;;;;;6.20;4.30;;;15.90;99.90;;;;;;5075401;28;20227;-84
2021/08/05 04:26:38;;;;;;;5.73;5.20;;;15.90;99.90;;;;;;5069629;28;20494;-85
2021/08/05 04:29:05;;;;;;;5.40;4.33;;;15.90;99.90;;;;;;5057930;28;20593;-79
2021/08/05 04:31:32;;;;;;;4.87;4.47;;;16.00;99.90;;;;;;5056439;28;20461;-80
2021/08/05 04:33:59;;;;;;;8.90;5.27;;;16.00;99.90;;;;;;5056202;28;20538;-79
2021/08/05 04:36:27;;;;;;;9.00;5.10;;;16.10;99.90;;;;;;5055940;28;20487;-78
2021/08/05 04:38:54;;;;;;;6.30;5.07;;;16.20;99.90;;;;;;5055223;28;20485;-78
2021/08/05 04:41:21;;;;;;;5.10;4.70;;;16.30;99.20;;;;;;5064365;28;20443;-83
2021/08/05 04:43:48;;;;;;;7.50;5.03;;;16.40;98.10;;;;;;5066261;28;20482;-82
2021/08/05 04:46:15;;;;;;;5.33;4.43;;;16.50;97.60;;;;;;5072105;28;20432;-82
2021/08/05 04:48:41;;;;;;;7.10;4.87;;;16.50;97.20;;;;;;5074733;28;20546;-81
2021/08/05 04:51:08;;;;;;;6.17;5.27;;;16.70;97.10;;;;;;5075523;28;20811;-81
2021/08/05 04:53:36;;;;;;;5.33;4.63;;;17.00;95.90;;;;;;5077652;28;20473;-79
2021/08/05 04:56:04;;;;;;;5.60;4.50;;;17.10;93.40;;;;;;5073999;28;20512;-79
2021/08/05 04:58:31;;;;;;;4.97;4.53;;;17.10;92.40;;;;;;5068835;28;20475;-82
2021/08/05 05:00:58;;;;;;;6.90;4.40;;;17.20;91.90;;;;;;5070566;28;20467;-80
2021/08/05 05:03:24;;;;;;;5.60;4.23;;;17.30;92.00;;;;;;5067482;28;20460;-81
2021/08/05 05:05:51;;;;;;;4.50;4.10;;;17.70;90.70;;;;;;5056158;28;20539;-79
2021/08/05 05:08:20;;;;;;;7.87;4.10;;;18.10;85.90;;;;;;5057723;28;20931;-82
2021/08/05 05:10:50;;;;;;;7.57;4.43;;;18.20;82.70;;;;;;5066260;28;20572;-82
2021/08/05 05:13:18;;;;;;;5.70;4.40;;;18.50;81.10;;;;;;5073282;28;20485;-82
2021/08/05 05:15:45;;;;;;;7.17;3.70;;;19.10;77.90;;;;;;5072236;28;20433;-81
2021/08/05 05:18:14;;;;;;;7.20;4.13;;;20.10;71.30;;;;;;5070243;28;20540;-82
2021/08/05 05:20:41;;;;;;;5.67;3.60;;;21.00;63.30;;;;;;5060963;28;20473;-80
2021/08/05 05:23:09;;;;;;;3.20;2.90;;;21.40;59.90;;;;;;5061234;28;20483;-80
2021/08/05 05:25:37;;;;;;;5.10;4.07;;;21.20;59.70;;;;;;5058239;28;20522;-79
2021/08/05 05:28:07;;;;;;;5.43;4.13;;;20.70;60.10;;;;;;5069452;28;20485;-82
2021/08/05 05:30:35;;;;;;;4.80;4.20;;;20.30;62.50;;;;;;5060763;28;20669;-80
2021/08/05 05:33:02;;;;;;;9.77;3.93;;;20.10;63.70;;;;;;5057516;28;20503;-81
2021/08/05 05:35:29;;;;;;;4.87;3.90;;;20.00;64.30;;;;;;5057018;28;20451;-80
2021/08/05 05:37:57;;;;;;;6.07;3.67;;;19.80;65.80;;;;;;5059150;28;20552;-81
2021/08/05 05:40:24;;;;;;;6.73;3.90;;;19.60;67.40;;;;;;5059039;28;20432;-80
2021/08/05 05:42:53;;;;;;;7.00;3.73;;;19.50;67.30;;;;;;5056885;28;21120;-79
2021/08/05 05:45:21;;;;;;;5.57;4.13;;;19.40;67.90;;;;;;5057960;28;20494;-79
2021/08/05 05:47:48;;;;;;;6.20;3.60;;;19.50;68.00;;;;;;5058961;28;20435;-79
2021/08/05 05:50:17;;;;;;;3.80;3.23;;;19.70;67.50;;;;;;5064354;28;20490;-80
2021/08/05 05:52:45;;;;;;;4.03;3.43;;;20.10;65.10;;;;;;5065283;28;20480;-80
2021/08/05 05:55:12;;;;;;;3.40;3.10;;;20.50;62.50;;;;;;5064681;28;20429;-80
2021/08/05 05:57:39;;;;;;;3.87;3.47;;;20.70;61.30;;;;;;5060582;28;20474;-80
2021/08/05 06:00:07;;;;;;;5.17;3.20;;;20.70;59.90;;;;;;5058365;28;20557;-80
2021/08/05 06:02:36;;;;;;;3.60;3.13;;;20.70;60.50;;;;;;5046733;28;20558;-84
2021/08/05 06:05:03;;;;;;;4.27;3.83;;;20.80;59.30;;;;;;5052183;28;20433;-86
2021/08/05 06:07:29;;;;;;;3.70;3.30;;;20.80;59.30;;;;;;5057613;28;20518;-86
2021/08/05 06:09:56;;;;;;;4.20;2.97;;;20.70;59.30;;;;;;5065484;28;20494;-79
2021/08/05 06:12:23;;;;;;;7.10;3.50;;;20.50;59.10;;;;;;5071903;28;20484;-83
2021/08/05 06:14:50;;;;;;;3.50;3.20;;;20.50;60.00;;;;;;5072507;28;20481;-80
2021/08/05 06:17:17;;;;;;;3.67;3.00;;;20.60;59.80;;;;;;5071065;28;20464;-80
2021/08/05 06:19:45;;;;;;;5.80;3.17;;;20.70;59.40;;;;;;5073174;28;20433;-82
2021/08/05 06:22:12;;;;;;;3.53;2.97;;;20.90;59.40;;;;;;5074820;28;20394;-81
2021/08/05 06:24:39;;;;;;;3.70;2.50;;;21.00;58.20;;;;;;5065709;28;20546;-80
2021/08/05 06:27:06;;;;;;;3.50;2.60;;;20.90;58.90;;;;;;5062219;28;20541;-79
2021/08/05 06:29:33;;;;;;;2.70;2.50;;;20.90;58.30;;;;;;5056102;28;20495;-80
2021/08/05 06:32:00;;;;;;;3.40;3.00;;;21.10;58.20;;;;;;5059446;28;20470;-79
2021/08/05 06:34:27;;;;;;;3.50;2.60;;;21.30;56.60;;;;;;5073264;28;20422;-79
2021/08/05 06:36:55;;;;;;;3.43;2.47;;;21.30;56.60;;;;;;5059153;28;20480;-79
2021/08/05 06:39:22;;;;;;;3.90;3.00;;;21.50;56.00;;;;;;5057193;28;20970;-79
2021/08/05 06:41:49;;;;;;;3.80;2.73;;;21.70;55.20;;;;;;5063366;28;20419;-79
2021/08/05 06:44:17;;;;;;;4.07;3.10;;;21.90;53.20;;;;;;5076716;28;20567;-83
2021/08/05 06:46:44;;;;;;;3.10;2.60;;;21.60;54.40;;;;;;5072228;28;20894;-83
2021/08/05 06:49:11;;;;;;;4.40;3.60;;;21.80;54.30;;;;;;5055186;28;20524;-82
2021/08/05 06:51:38;;;;;;;3.37;3.00;;;22.00;52.80;;;;;;5055732;28;20959;-81
2021/08/05 06:54:06;;;;;;;7.00;2.83;;;22.00;52.40;;;;;;5046534;28;20478;-81
2021/08/05 06:56:34;;;;;;;2.97;2.70;;;21.90;52.60;;;;;;5045975;28;20427;-81
2021/08/05 06:59:04;;;;;;;3.13;2.77;;;22.00;52.30;;;;;;5069778;28;20469;-80
2021/08/05 07:01:32;;;;;;;3.40;2.57;;;22.10;50.80;;;;;;5072413;28;20430;-81
2021/08/05 07:04:01;;;;;;;3.17;2.83;;;22.20;50.90;;;;;;5062845;28;20499;-80
2021/08/05 07:06:28;;;;;;;4.87;2.97;;;22.30;51.00;;;;;;5059041;28;20447;-81
2021/08/05 07:08:55;;;;;;;2.60;2.40;;;22.40;51.10;;;;;;5048125;28;20510;-80
2021/08/05 07:11:23;;;;;;;2.40;2.20;;;22.50;51.20;;;;;;5044160;28;20436;-80
2021/08/05 07:13:50;;;;;;;4.73;3.10;;;22.60;49.30;;;;;;5046228;28;20454;-81
2021/08/05 07:16:17;;;;;;;5.30;3.33;;;22.30;50.70;;;;;;5046719;28;20490;-81
2021/08/05 07:18:44;;;;;;;4.23;3.10;;;22.10;50.80;;;;;;5044867;28;20511;-81
2021/08/05 07:21:11;;;;;;;6.70;2.90;;;22.00;50.70;;;;;;5054392;28;20464;-81
2021/08/05 07:23:38;;;;;;;4.07;2.40;;;22.00;50.70;;;;;;5041342;28;20463;-79
2021/08/05 07:26:05;;;;;;;4.70;3.00;;;22.10;50.80;;;;;;5057002;28;20535;-79
2021/08/05 07:28:33;;;;;;;2.60;2.40;;;22.20;50.90;;;;;;5055900;28;21004;-79
2021/08/05 07:31:00;;;;;;;3.50;2.80;;;21.90;50.60;;;;;;5057403;28;21007;-79
2021/08/05 07:33:27;;;;;;;2.70;2.00;;;22.00;50.70;;;;;;5057038;28;20454;-81
2021/08/05 07:35:54;;;;;;;3.57;2.30;;;22.00;50.70;;;;;;5056959;28;20484;-78
2021/08/05 07:38:21;;;;;;;2.80;2.60;;;22.20;50.90;;;;;;5056071;28;20468;-77
2021/08/05 07:40:48;;;;;;;2.80;2.60;;;22.40;49.80;;;;;;5057304;28;20453;-78
2021/08/05 07:43:15;;;;;;;5.00;2.20;;;22.50;49.70;;;;;;5060255;28;20463;-80
2021/08/05 07:45:43;;;;;;;2.90;2.23;;;22.60;48.70;;;;;;5070727;28;20432;-80
2021/08/05 07:48:10;;;;;;;4.13;2.57;;;22.70;48.00;;;;;;5079509;28;20415;-82
2021/08/05 07:50:37;;;;;;;2.43;2.23;;;22.60;48.50;;;;;;5079457;28;20519;-83
2021/08/05 07:53:04;;;;;;;4.70;2.60;;;22.80;47.60;;;;;;5079847;28;20422;-81
2021/08/05 07:55:31;;;;;;;3.50;2.70;;;23.00;47.50;;;;;;5079822;28;20448;-82
2021/08/05 07:57:58;;;;;;;3.43;2.40;;;23.20;47.00;;;;;;5079736;28;20476;-81
2021/08/05 08:00:25;;;;;;;2.43;2.23;;;23.30;46.00;;;;;;5079536;28;20453;-79
2021/08/05 08:02:54;;;;;;;2.60;2.40;;;23.30;45.60;;;;;;5077385;28;20455;-79
2021/08/05 08:05:21;;;;;;;3.40;2.40;;;23.40;44.80;;;;;;5064301;28;20490;-79
2021/08/05 08:07:48;;;;;;;4.03;2.50;;;23.40;45.10;;;;;;5037812;28;20536;-79
2021/08/05 08:10:15;;;;;;;3.70;2.30;;;23.40;44.80;;;;;;5037503;28;20458;-80
2021/08/05 08:12:42;;;;;;;2.33;2.13;;;23.10;46.20;;;;;;5039071;28;20485;-79
2021/08/05 08:15:10;;;;;;;2.47;2.27;;;23.40;44.70;;;;;;5040400;28;20548;-80
2021/08/05 08:17:37;;;;;;;2.37;2.27;;;23.30;43.10;;;;;;5052662;28;20488;-79
2021/08/05 08:20:09;;;;;;;3.03;2.63;;;23.10;43.10;;;;;;5055768;28;20462;-80
2021/08/05 08:22:36;;;;;;;2.40;2.20;;;23.00;44.60;;;;;;5058235;28;20416;-79
2021/08/05 08:25:03;;;;;;;2.70;2.50;;;23.40;44.60;;;;;;5054021;28;20441;-80
2021/08/05 08:27:31;;;;;;;5.33;2.50;;;23.60;44.80;;;;;;5047747;28;20464;-79
2021/08/05 08:29:58;;;;;;;3.73;2.30;;;23.80;44.20;;;;;;5046641;28;20538;-80
2021/08/05 08:32:25;;;;;;;2.83;2.13;;;23.80;42.40;;;;;;5043924;28;20417;-80
2021/08/05 08:34:52;;;;;;;2.00;1.90;;;23.50;42.10;;;;;;5038146;28;20950;-80
2021/08/05 08:37:20;;;;;;;2.80;2.50;;;23.20;43.00;;;;;;5043591;28;20442;-81
2021/08/05 08:39:47;;;;;;;2.10;2.00;;;22.90;44.50;;;;;;5040317;28;20428;-80
2021/08/05 08:42:16;;;;;;;3.27;2.37;;;22.90;45.70;;;;;;5039067;28;20457;-80
2021/08/05 08:44:43;;;;;;;2.83;2.23;;;23.00;45.60;;;;;;5039180;28;20901;-79
2021/08/05 08:47:11;;;;;;;2.40;2.03;;;23.10;43.80;;;;;;5053356;28;20956;-78
2021/08/05 08:49:39;;;;;;;2.53;2.00;;;23.00;43.20;;;;;;5042368;28;20488;-78
2021/08/05 08:52:06;;;;;;;2.07;1.97;;;23.00;43.90;;;;;;5051774;28;20436;-78
2021/08/05 08:54:40;;;;;;;2.57;2.17;;;23.00;44.40;;;;;;5046567;28;21005;-79
2021/08/05 08:57:07;;;;;;;3.00;2.47;;;23.20;44.10;;;;;;5038704;28;20436;-79
2021/08/05 08:59:35;;;;;;;2.80;2.47;;;23.20;42.20;;;;;;5046378;28;20582;-79
2021/08/05 09:02:02;;;;;;;2.87;2.67;;;23.60;42.20;;;;;;5038056;28;20557;-79
2021/08/05 09:04:29;;;;;;;2.20;2.10;;;23.70;42.30;;;;;;5037238;28;20877;-79
2021/08/05 09:06:58;;;;;;;2.50;2.30;;;23.50;42.60;;;;;;5036605;28;20458;-79
2021/08/05 09:09:25;;;;;;;3.23;2.60;;;23.60;43.80;;;;;;5037856;28;20583;-79
2021/08/05 09:11:53;;;;;;;2.57;2.30;;;23.80;44.00;;;;;;5035585;28;20463;-80
2021/08/05 09:14:40;;;;;;;2.70;2.50;;;24.10;42.60;;;;;;5040142;28;20509;-80
2021/08/05 09:17:20;;;;;;;4.50;2.37;;;24.40;43.20;;;;;;5044869;28;20472;-80
2021/08/05 09:19:47;;;;;;;2.53;2.33;;;24.20;40.60;;;;;;5038621;28;20460;-78
2021/08/05 09:22:33;;;;;;;2.57;2.37;;;24.10;40.50;;;;;;5039353;28;20900;-79
2021/08/05 09:25:00;;;;;;;2.93;2.10;;;23.70;42.30;;;;;;5036076;28;20505;-77
2021/08/05 09:27:35;;;;;;;4.40;2.60;;;23.80;42.30;;;;;;5050881;28;20462;-78
2021/08/05 09:30:02;;;;;;;3.00;2.70;;;24.10;41.90;;;;;;5045515;28;20488;-80
2021/08/05 09:32:31;;;;;;;2.00;1.90;;;24.30;41.00;;;;;;5041260;28;20426;-80
2021/08/05 09:35:06;;;;;;;3.17;2.50;;;24.40;41.00;;;;;;5046928;28;20486;-77
2021/08/05 09:37:38;;;;;;;4.10;2.70;;;24.40;41.00;;;;;;5057022;28;20459;-77
2021/08/05 09:40:11;;;;;;;2.73;2.40;;;24.50;40.40;;;;;;5054191;28;20469;-80
2021/08/05 09:42:39;;;;;;;3.33;3.00;;;24.50;40.70;;;;;;5046864;28;20427;-81
2021/08/05 09:45:08;;;;;;;5.20;2.53;;;24.60;40.20;;;;;;5047582;28;20468;-80
2021/08/05 09:47:42;;;;;;;4.37;2.73;;;24.50;40.40;;;;;;5046264;28;20487;-79
2021/08/05 09:50:11;;;;;;;5.70;2.60;;;24.50;40.40;;;;;;5042390;28;20470;-81
2021/08/05 09:52:38;;;;;;;3.00;2.60;;;24.70;40.00;;;;;;5051394;28;20428;-80
2021/08/05 09:55:10;;;;;;;2.83;2.33;;;24.80;40.10;;;;;;5056603;28;20440;-79
2021/08/05 09:57:41;;;;;;;3.20;2.90;;;24.90;40.00;;;;;;5051520;28;20430;-80
2021/08/05 10:00:10;;;;;;;2.80;2.53;;;24.90;40.00;;;;;;5052361;28;20475;-80
2021/08/05 10:02:41;;;;;;;3.00;2.67;;;25.20;39.20;;;;;;5052142;28;20445;-81
2021/08/05 10:05:11;;;;;;;2.13;1.93;;;25.30;38.90;;;;;;5054719;28;20431;-80
2021/08/05 10:07:43;;;;;;;4.27;2.73;;;24.80;40.00;;;;;;5054002;28;20439;-81
2021/08/05 10:10:11;;;;;;;2.77;2.17;;;24.90;39.90;;;;;;5054070;28;20528;-78
2021/08/05 10:12:41;;;;;;;2.20;2.00;;;24.60;39.10;;;;;;5053090;28;20462;-79
2021/08/05 10:15:10;;;;;;;4.60;2.60;;;24.60;40.60;;;;;;5042706;28;20464;-80
2021/08/05 10:17:39;;;;;;;2.63;2.43;;;24.40;40.50;;;;;;5043060;28;20467;-81
2021/08/05 10:20:08;;;;;;;2.93;2.60;;;24.40;40.50;;;;;;5048616;28;20492;-79
2021/08/05 10:22:36;;;;;;;2.37;2.17;;;23.90;42.50;;;;;;5055636;28;20468;-80
2021/08/05 10:25:06;;;;;;;2.97;2.77;;;23.60;42.20;;;;;;5047542;28;20450;-82
2021/08/05 10:27:34;;;;;;;3.93;3.00;;;23.80;43.10;;;;;;5040853;28;20495;-80
2021/08/05 10:30:05;;;;;;;2.50;2.27;;;24.30;43.60;;;;;;5039124;28;20643;-80
2021/08/05 10:32:33;;;;;;;3.73;2.50;;;24.60;42.00;;;;;;5039215;28;20491;-82
2021/08/05 10:35:01;;;;;;;2.27;2.07;;;24.60;41.80;;;;;;5039803;28;20509;-81
2021/08/05 10:37:28;;;;;;;3.93;2.60;;;24.50;42.20;;;;;;5044397;28;20494;-80
2021/08/05 10:39:56;;;;;;;3.30;2.90;;;24.60;42.10;;;;;;5041062;28;20478;-81
2021/08/05 10:42:24;;;;;;;2.80;2.53;;;24.60;42.30;;;;;;5040512;28;20543;-82
2021/08/05 10:44:52;;;;;;;2.67;2.23;;;24.60;41.40;;;;;;5038070;28;20464;-81
2021/08/05 10:50:10;;;;;;;2.07;1.90;;;24.50;41.90;;;;;;5042507;28;20518;-82
2021/08/05 10:52:45;;;;;;;3.40;3.00;;;24.50;43.00;;;;;;5038100;28;20441;-81
2021/08/05 10:55:33;;;;;;;2.27;2.03;;;24.70;42.20;;;;;;5038438;28;20439;-81
2021/08/05 10:58:18;;;;;;;2.93;2.10;;;24.70;42.20;;;;;;5044296;28;20449;-80
2021/08/05 11:01:07;;;;;;;2.33;2.13;;;24.70;41.40;;;;;;5045233;28;20502;-80
2021/08/05 11:03:47;;;;;;;2.17;1.70;;;24.80;40.90;;;;;;5043359;28;20518;-81
2021/08/05 11:06:32;;;;;;;1.83;1.60;;;24.70;39.00;;;;;;5044112;28;20462;-81
2021/08/05 11:09:29;;;;;;;2.57;2.07;;;24.70;39.40;;;;;;5041761;28;20438;-80
2021/08/05 11:11:56;;;;;;;2.53;2.00;;;24.60;39.70;;;;;;5039236;28;20492;-78
2021/08/05 11:14:40;;;;;;;1.97;1.73;;;24.50;39.00;;;;;;5044039;28;20527;-80
2021/08/05 11:17:08;;;;;;;2.00;1.90;;;24.50;39.00;;;;;;5051285;28;20427;-79
2021/08/05 11:19:40;;;;;;;3.10;1.80;;;24.60;39.20;;;;;;5046188;28;20475;-79
2021/08/05 11:22:50;;;;;;;2.50;2.20;;;25.00;39.00;;;;;;5039561;28;20413;-79
2021/08/05 11:25:18;;;;;;;2.23;2.03;;;25.20;38.50;;;;;;5048346;28;20873;-80
2021/08/05 11:28:24;;;;;;;4.30;2.10;;;25.10;39.00;;;;;;5049690;28;20772;-81
2021/08/05 11:30:56;;;;;;;1.90;1.80;;;25.70;38.50;;;;;;5055825;28;20459;-82
2021/08/05 11:34:04;;;;;;;1.63;1.53;;;26.00;36.80;;;;;;5056844;28;20527;-78
2021/08/05 11:36:40;;;;;;;1.80;1.50;;;25.60;35.60;;;;;;5057487;28;20512;-79
2021/08/05 11:39:27;;;;;;;1.73;1.63;;;25.20;36.30;;;;;;5056859;28;20466;-79
2021/08/05 11:42:01;;;;;;;1.97;1.80;;;25.30;36.90;;;;;;5057261;28;20427;-76
2021/08/05 11:44:44;;;;;;;1.90;1.80;;;25.70;36.20;;;;;;5055329;28;20442;-78
2021/08/05 11:47:39;;;;;;;1.90;1.70;;;25.90;36.00;;;;;;5057654;28;20432;-78
2021/08/05 11:50:16;;;;;;;3.80;2.10;;;26.20;35.40;;;;;;5058743;28;20472;-81
2021/08/05 11:52:45;;;;;;;1.67;1.57;;;26.30;35.70;;;;;;5045927;28;20440;-80
2021/08/05 11:55:14;;;;;;;4.00;1.57;;;26.40;35.20;;;;;;5044606;28;20536;-80
2021/08/05 11:57:43;;;;;;;1.80;1.70;;;26.30;35.00;;;;;;5045131;28;20472;-80
2021/08/05 12:00:14;;;;;;;1.87;1.77;;;26.20;34.90;;;;;;5039575;28;20580;-79
2021/08/05 12:02:42;;;;;;;2.50;1.93;;;25.90;36.30;;;;;;5046068;28;20467;-79
2021/08/05 12:05:10;;;;;;;4.43;1.77;;;25.70;37.30;;;;;;5060299;28;20500;-81
2021/08/05 12:07:38;;;;;;;1.90;1.80;;;25.90;37.30;;;;;;5060740;28;20527;-83
2021/08/05 12:10:10;;;;;;;3.07;1.90;;;25.90;37.50;;;;;;5058443;28;20502;-81
2021/08/05 12:12:43;;;;;;;2.07;1.60;;;26.20;36.60;;;;;;5060771;28;20935;-80
2021/08/05 12:15:13;;;;;;;5.30;1.73;;;26.10;36.70;;;;;;5048446;28;20503;-80
2021/08/05 12:17:46;;;;;;;3.33;2.07;;;26.10;37.50;;;;;;5060254;28;20459;-80
2021/08/05 12:20:19;;;;;;;2.07;1.90;;;25.90;36.50;;;;;;5059820;28;20443;-81
2021/08/05 12:22:49;;;;;;;2.53;2.33;;;25.90;36.70;;;;;;5063046;28;20458;-79
2021/08/05 12:25:45;;;;;;;9.03;1.80;;;26.10;36.70;;;;;;5058916;28;20468;-79
2021/08/05 12:28:13;;;;;;;1.60;1.50;;;26.00;36.50;;;;;;5057298;28;20430;-80
2021/08/05 12:30:48;;;;;;;2.30;2.10;;;26.00;36.90;;;;;;5058416;28;20519;-80
2021/08/05 12:33:20;;;;;;;2.00;1.83;;;26.20;36.40;;;;;;5058421;28;20411;-81
2021/08/05 12:36:09;;;;;;;1.70;1.60;;;25.60;38.10;;;;;;5057148;28;20455;-80
2021/08/05 12:38:54;;;;;;;1.83;1.73;;;25.50;37.50;;;;;;5057327;28;20464;-80
2021/08/05 12:41:26;;;;;;;4.43;1.67;;;25.90;36.40;;;;;;5061431;28;20534;-79
2021/08/05 12:43:56;;;;;;;2.00;1.90;;;25.90;36.60;;;;;;5058837;28;20452;-81
2021/08/05 12:46:25;;;;;;;1.50;1.40;;;25.70;36.30;;;;;;5061362;28;20456;-81
2021/08/05 12:48:55;;;;;;;1.70;1.60;;;25.30;37.60;;;;;;5063149;28;20457;-81
2021/08/05 12:51:24;;;;;;;1.40;1.30;;;25.10;36.40;;;;;;5063963;28;20485;-79
2021/08/05 12:53:52;;;;;;;1.43;1.20;;;25.00;35.80;;;;;;5065167;28;20423;-79
2021/08/05 12:56:39;;;;;;;3.20;1.40;;;24.80;36.00;;;;;;5072374;28;20457;-79
2021/08/05 12:59:07;;;;;;;1.30;1.20;;;24.80;36.90;;;;;;5076029;28;20571;-79
2021/08/05 13:01:34;;;;;;;1.80;1.70;;;24.90;36.60;;;;;;5068219;28;20478;-80
2021/08/05 13:04:02;;;;;;;2.60;1.53;;;24.90;36.90;;;;;;5074888;28;20430;-80